Batchelor, Louisiana
Current Conditions -  °F | °C
As of 11:35 AM on Thursday 30 Oct 2014 (Local Time) from KHZR Reporting Station
Clear Clear  
Wind Chill: 69°   Ceiling: Unl
Heat Index: 69°   Visibility: 10mi
Dew Point: 43°   Wind: 9mph
Humidity: 39%   Direction: 50°NE
Pressure: 30.15"   Gusts: NA
Location:  30.84°N, 91.66°W
Report Text: KHZR 301635Z AUTO 05008KT 10SM CLR 21/06 A3015 RMK AO2 T02050061
Loading
Personal Weather Stations






























Interactive Weather Map
Tropical Storm Tracking
New forecast layout! Learn more

10-Day Weather Forecast

Advertisements
Track Severe Weather on mobile